CKS5960 KONT-PHNL
Flight info
| Callsign | CKS5960 |
|---|---|
| Flight time | 1h 28m |
| Altitude | 34000 |
| Route | SNSHN5 COREZ DCT BRINY DCT BEBOP R464 BITTA INOYI1 |
| Aircraft | B77L/H-SDE1E2E3FGHIJ2J3J4J5M1RWXY/LB1D1 |
Departure
| Time | 2026-05-07 02:59 |
|---|---|
| Airport | Ontario International Airport (KONT) |
Arrival
| Time | 2026-05-07 04:28 |
|---|---|
| Airport | Daniel K. Inouye International Airport (PHNL) |
| Time | Latitude | Longitude | Altitude | Speed | Heading |
|---|---|---|---|---|---|
| 2026-05-07 02:26 | 34.05953 | -117.62086 | 949 ft | 0 kts | 0° |
| 2026-05-07 02:42 | 34.05952 | -117.62086 | 949 ft | 1 kts | 0° |
| 2026-05-07 02:43 | 34.05929 | -117.62086 | 948 ft | 4 kts | 0° |
| 2026-05-07 02:43 | 34.05901 | -117.62086 | 947 ft | 4 kts | 0° |
| 2026-05-07 02:43 | 34.05875 | -117.62086 | 948 ft | 4 kts | 0° |
| 2026-05-07 02:43 | 34.05865 | -117.62086 | 947 ft | 0 kts | 360° |
| 2026-05-07 02:49 | 34.05866 | -117.62086 | 947 ft | 1 kts | 360° |
| 2026-05-07 02:50 | 34.05877 | -117.62074 | 948 ft | 3 kts | 66° |
| 2026-05-07 02:50 | 34.05874 | -117.62035 | 946 ft | 7 kts | 93° |
| 2026-05-07 02:50 | 34.05872 | -117.61968 | 949 ft | 8 kts | 93° |
| 2026-05-07 02:50 | 34.05871 | -117.61901 | 949 ft | 8 kts | 90° |
| 2026-05-07 02:51 | 34.05871 | -117.61834 | 949 ft | 8 kts | 90° |
| 2026-05-07 02:51 | 34.05840 | -117.61784 | 949 ft | 8 kts | 156° |
| 2026-05-07 02:51 | 34.05800 | -117.61740 | 949 ft | 8 kts | 111° |
| 2026-05-07 02:51 | 34.05798 | -117.61672 | 949 ft | 8 kts | 89° |
| 2026-05-07 02:52 | 34.05799 | -117.61581 | 948 ft | 16 kts | 89° |
| 2026-05-07 02:52 | 34.05798 | -117.61398 | 948 ft | 25 kts | 90° |
| 2026-05-07 02:52 | 34.05798 | -117.61193 | 948 ft | 25 kts | 90° |
| 2026-05-07 02:52 | 34.05799 | -117.60986 | 949 ft | 25 kts | 90° |
| 2026-05-07 02:53 | 34.05798 | -117.60780 | 949 ft | 25 kts | 90° |
| 2026-05-07 02:53 | 34.05798 | -117.60574 | 950 ft | 25 kts | 90° |
| 2026-05-07 02:53 | 34.05798 | -117.60369 | 950 ft | 25 kts | 90° |
| 2026-05-07 02:53 | 34.05799 | -117.60162 | 950 ft | 25 kts | 89° |
| 2026-05-07 02:54 | 34.05799 | -117.59957 | 949 ft | 25 kts | 90° |
| 2026-05-07 02:54 | 34.05799 | -117.59751 | 948 ft | 25 kts | 90° |
| 2026-05-07 02:54 | 34.05799 | -117.59545 | 948 ft | 25 kts | 90° |
| 2026-05-07 02:54 | 34.05799 | -117.59339 | 948 ft | 25 kts | 90° |
| 2026-05-07 02:55 | 34.05799 | -117.59133 | 949 ft | 26 kts | 90° |
| 2026-05-07 02:55 | 34.05799 | -117.58902 | 949 ft | 28 kts | 90° |
| 2026-05-07 02:55 | 34.05799 | -117.58682 | 950 ft | 24 kts | 90° |
| 2026-05-07 02:55 | 34.05799 | -117.58492 | 950 ft | 20 kts | 90° |
| 2026-05-07 02:56 | 34.05799 | -117.58360 | 949 ft | 11 kts | 90° |
| 2026-05-07 02:56 | 34.05793 | -117.58298 | 949 ft | 2 kts | 119° |
| 2026-05-07 02:56 | 34.05790 | -117.58293 | 949 ft | 0 kts | 130° |
| 2026-05-07 02:57 | 34.05785 | -117.58288 | 948 ft | 3 kts | 137° |
| 2026-05-07 02:57 | 34.05747 | -117.58273 | 952 ft | 7 kts | 174° |
| 2026-05-07 02:58 | 34.05697 | -117.58277 | 949 ft | 6 kts | 203° |
| 2026-05-07 02:58 | 34.05690 | -117.58319 | 950 ft | 8 kts | 267° |
| 2026-05-07 02:58 | 34.05689 | -117.58511 | 951 ft | 48 kts | 270° |
| 2026-05-07 02:58 | 34.05689 | -117.59168 | 948 ft | 108 kts | 270° |
| 2026-05-07 02:59 | 34.05690 | -117.60292 | 951 ft | 156 kts | 270° |
| 2026-05-07 02:59 | 34.05688 | -117.61738 | 1083 ft | 179 kts | 268° |
| 2026-05-07 02:59 | 34.05696 | -117.63212 | 1586 ft | 178 kts | 270° |
| 2026-05-07 02:59 | 34.05710 | -117.64744 | 2010 ft | 183 kts | 271° |
| 2026-05-07 03:00 | 34.05757 | -117.66288 | 2419 ft | 190 kts | 272° |
| 2026-05-07 03:00 | 34.05798 | -117.67909 | 2827 ft | 196 kts | 272° |
| 2026-05-07 03:00 | 34.05837 | -117.69580 | 3230 ft | 203 kts | 272° |
| 2026-05-07 03:00 | 34.05951 | -117.71292 | 3626 ft | 207 kts | 285° |
| 2026-05-07 03:01 | 34.06376 | -117.73000 | 4025 ft | 219 kts | 288° |
| 2026-05-07 03:01 | 34.06859 | -117.74825 | 4293 ft | 242 kts | 288° |
| 2026-05-07 03:01 | 34.07392 | -117.76883 | 4521 ft | 266 kts | 287° |
| 2026-05-07 03:01 | 34.07994 | -117.78986 | 5259 ft | 267 kts | 298° |
| 2026-05-07 03:02 | 34.09120 | -117.80814 | 5749 ft | 275 kts | 315° |
| 2026-05-07 03:02 | 34.10459 | -117.82464 | 6627 ft | 274 kts | 316° |
| 2026-05-07 03:02 | 34.11781 | -117.84100 | 7464 ft | 272 kts | 316° |
| 2026-05-07 03:02 | 34.12985 | -117.85876 | 8018 ft | 282 kts | 308° |
| 2026-05-07 03:03 | 34.14135 | -117.87817 | 8710 ft | 286 kts | 308° |
| 2026-05-07 03:03 | 34.15285 | -117.89778 | 9484 ft | 288 kts | 309° |
| 2026-05-07 03:03 | 34.16450 | -117.91768 | 10172 ft | 292 kts | 308° |
| 2026-05-07 03:03 | 34.17656 | -117.93822 | 10548 ft | 310 kts | 309° |
| 2026-05-07 03:04 | 34.18955 | -117.96031 | 10702 ft | 334 kts | 309° |
| 2026-05-07 03:04 | 34.20344 | -117.98390 | 10873 ft | 356 kts | 309° |
| 2026-05-07 03:04 | 34.21815 | -118.00898 | 11014 ft | 375 kts | 308° |
| 2026-05-07 03:04 | 34.23339 | -118.03499 | 11567 ft | 383 kts | 308° |
| 2026-05-07 03:05 | 34.24893 | -118.06144 | 12279 ft | 389 kts | 308° |
| 2026-05-07 03:05 | 34.26470 | -118.08827 | 13075 ft | 391 kts | 308° |
| 2026-05-07 03:05 | 34.28054 | -118.11524 | 13795 ft | 396 kts | 308° |
| 2026-05-07 03:05 | 34.29702 | -118.14223 | 14441 ft | 401 kts | 310° |
| 2026-05-07 03:06 | 34.31408 | -118.16912 | 15110 ft | 403 kts | 311° |
| 2026-05-07 03:06 | 34.33133 | -118.19594 | 15830 ft | 405 kts | 311° |
| 2026-05-07 03:06 | 34.34869 | -118.22297 | 16495 ft | 409 kts | 311° |
| 2026-05-07 03:06 | 34.36554 | -118.24931 | 17098 ft | 414 kts | 310° |
| 2026-05-07 03:07 | 34.38175 | -118.27477 | 17653 ft | 417 kts | 310° |
| 2026-05-07 03:07 | 34.39951 | -118.30280 | 18261 ft | 421 kts | 310° |
| 2026-05-07 03:07 | 34.41738 | -118.33108 | 18815 ft | 424 kts | 310° |
| 2026-05-07 03:07 | 34.43514 | -118.35925 | 19372 ft | 426 kts | 310° |
| 2026-05-07 03:08 | 34.45324 | -118.38798 | 19926 ft | 430 kts | 310° |
| 2026-05-07 03:08 | 34.47144 | -118.41687 | 20463 ft | 433 kts | 310° |
| 2026-05-07 03:08 | 34.48978 | -118.44601 | 21008 ft | 436 kts | 310° |
| 2026-05-07 03:08 | 34.50821 | -118.47533 | 21559 ft | 439 kts | 310° |
| 2026-05-07 03:09 | 34.52679 | -118.50491 | 22097 ft | 441 kts | 310° |
| 2026-05-07 03:09 | 34.54498 | -118.53388 | 22615 ft | 444 kts | 310° |
| 2026-05-07 03:09 | 34.56197 | -118.56097 | 23110 ft | 447 kts | 310° |
| 2026-05-07 03:09 | 34.58088 | -118.59115 | 23628 ft | 450 kts | 310° |
| 2026-05-07 03:10 | 34.59970 | -118.62120 | 24055 ft | 453 kts | 310° |
| 2026-05-07 03:10 | 34.61654 | -118.64812 | 24457 ft | 455 kts | 310° |
| 2026-05-07 03:10 | 34.63569 | -118.67874 | 24896 ft | 458 kts | 310° |
| 2026-05-07 03:10 | 34.65500 | -118.70966 | 25377 ft | 460 kts | 310° |
| 2026-05-07 03:11 | 34.67437 | -118.74070 | 25816 ft | 463 kts | 310° |
| 2026-05-07 03:11 | 34.69128 | -118.76782 | 26170 ft | 465 kts | 310° |
| 2026-05-07 03:11 | 34.71121 | -118.79981 | 26608 ft | 468 kts | 310° |
| 2026-05-07 03:11 | 34.73088 | -118.83142 | 27027 ft | 470 kts | 310° |
| 2026-05-07 03:12 | 34.75066 | -118.86322 | 27461 ft | 472 kts | 310° |
| 2026-05-07 03:12 | 34.77052 | -118.89517 | 27861 ft | 475 kts | 310° |
| 2026-05-07 03:12 | 34.79081 | -118.92687 | 28246 ft | 474 kts | 314° |
| 2026-05-07 03:12 | 34.81548 | -118.95313 | 28523 ft | 470 kts | 331° |
| 2026-05-07 03:13 | 34.84402 | -118.97256 | 28806 ft | 471 kts | 334° |
| 2026-05-07 03:13 | 34.87295 | -118.99167 | 29149 ft | 475 kts | 333° |
| 2026-05-07 03:13 | 34.89839 | -119.00901 | 29446 ft | 477 kts | 333° |
| 2026-05-07 03:13 | 34.92719 | -119.02933 | 29827 ft | 478 kts | 332° |
| 2026-05-07 03:14 | 34.95583 | -119.04989 | 30264 ft | 477 kts | 332° |
| 2026-05-07 03:14 | 34.98435 | -119.07043 | 30728 ft | 475 kts | 332° |
| 2026-05-07 03:14 | 35.03917 | -119.10980 | 31534 ft | 472 kts | 332° |
| 2026-05-07 03:15 | 35.06571 | -119.12882 | 31881 ft | 471 kts | 332° |
| 2026-05-07 03:15 | 35.09402 | -119.14912 | 32047 ft | 474 kts | 332° |
| 2026-05-07 03:15 | 35.11873 | -119.16686 | 32071 ft | 476 kts | 332° |
| 2026-05-07 03:16 | 35.17564 | -119.20780 | 32075 ft | 471 kts | 332° |
| 2026-05-07 03:16 | 35.23193 | -119.24838 | 32087 ft | 468 kts | 332° |
| 2026-05-07 03:17 | 35.28823 | -119.28902 | 32165 ft | 472 kts | 332° |
| 2026-05-07 03:17 | 35.31652 | -119.30946 | 32501 ft | 471 kts | 332° |
| 2026-05-07 03:17 | 35.34095 | -119.32714 | 32880 ft | 468 kts | 332° |
| 2026-05-07 03:17 | 35.36891 | -119.34739 | 33291 ft | 466 kts | 332° |
| 2026-05-07 03:18 | 35.39682 | -119.36761 | 33624 ft | 465 kts | 332° |
| 2026-05-07 03:18 | 35.42465 | -119.38779 | 33913 ft | 465 kts | 332° |
| 2026-05-07 03:18 | 35.45263 | -119.40809 | 34023 ft | 469 kts | 332° |
| 2026-05-07 03:19 | 35.50884 | -119.44893 | 34068 ft | 467 kts | 332° |
| 2026-05-07 03:19 | 35.56108 | -119.49135 | 34075 ft | 466 kts | 318° |
| 2026-05-07 03:19 | 35.58153 | -119.52240 | 34093 ft | 468 kts | 307° |
| 2026-05-07 03:20 | 35.59981 | -119.55559 | 34077 ft | 470 kts | 307° |
| 2026-05-07 03:20 | 35.63689 | -119.62222 | 34092 ft | 473 kts | 307° |
| 2026-05-07 03:21 | 35.67464 | -119.68884 | 34087 ft | 476 kts | 308° |
| 2026-05-07 03:21 | 35.71278 | -119.75560 | 34087 ft | 478 kts | 308° |
| 2026-05-07 03:22 | 35.74968 | -119.82017 | 34081 ft | 478 kts | 308° |
| 2026-05-07 03:22 | 35.78563 | -119.88322 | 34086 ft | 477 kts | 308° |
| 2026-05-07 03:23 | 35.82373 | -119.95019 | 34084 ft | 476 kts | 308° |
| 2026-05-07 03:23 | 35.86161 | -120.01694 | 34088 ft | 475 kts | 308° |
| 2026-05-07 03:24 | 35.89943 | -120.08369 | 34093 ft | 473 kts | 307° |
| 2026-05-07 03:24 | 35.93683 | -120.14983 | 34096 ft | 472 kts | 307° |
| 2026-05-07 03:25 | 35.97214 | -120.21239 | 34090 ft | 472 kts | 307° |
| 2026-05-07 03:25 | 36.00963 | -120.27893 | 34100 ft | 471 kts | 307° |
| 2026-05-07 03:26 | 36.04484 | -120.34155 | 34101 ft | 471 kts | 307° |
| 2026-05-07 03:26 | 36.08226 | -120.40821 | 34100 ft | 472 kts | 307° |
| 2026-05-07 03:27 | 36.11962 | -120.47491 | 34108 ft | 472 kts | 307° |
| 2026-05-07 03:27 | 36.15570 | -120.53945 | 34107 ft | 472 kts | 307° |
| 2026-05-07 03:28 | 36.18590 | -120.59355 | 34106 ft | 473 kts | 307° |
| 2026-05-07 03:28 | 36.22292 | -120.66002 | 34107 ft | 472 kts | 307° |
| 2026-05-07 03:29 | 36.25801 | -120.72311 | 34123 ft | 472 kts | 307° |
| 2026-05-07 03:29 | 36.29525 | -120.79019 | 34116 ft | 473 kts | 307° |
| 2026-05-07 03:30 | 36.33253 | -120.85748 | 34125 ft | 473 kts | 307° |
| 2026-05-07 03:30 | 36.36983 | -120.92495 | 34125 ft | 474 kts | 307° |
| 2026-05-07 03:31 | 36.40704 | -120.99239 | 34125 ft | 474 kts | 307° |
| 2026-05-07 03:31 | 36.44422 | -121.05991 | 34131 ft | 474 kts | 306° |
| 2026-05-07 03:32 | 36.48139 | -121.12754 | 34139 ft | 474 kts | 306° |
| 2026-05-07 03:32 | 36.51850 | -121.19521 | 34139 ft | 473 kts | 306° |
| 2026-05-07 03:33 | 36.55559 | -121.26296 | 34154 ft | 473 kts | 306° |
| 2026-05-07 03:33 | 36.59125 | -121.32824 | 34160 ft | 473 kts | 306° |
| 2026-05-07 03:34 | 36.62710 | -121.39398 | 34156 ft | 473 kts | 306° |
| 2026-05-07 03:34 | 36.66404 | -121.46185 | 34163 ft | 473 kts | 306° |
| 2026-05-07 03:35 | 36.70091 | -121.52974 | 34162 ft | 472 kts | 306° |
| 2026-05-07 03:35 | 36.73768 | -121.59758 | 34160 ft | 473 kts | 306° |
| 2026-05-07 03:36 | 36.77450 | -121.66564 | 34155 ft | 473 kts | 306° |
| 2026-05-07 03:36 | 36.81018 | -121.73174 | 34158 ft | 473 kts | 306° |
| 2026-05-07 03:37 | 36.84560 | -121.79746 | 34145 ft | 473 kts | 306° |
| 2026-05-07 03:37 | 36.88227 | -121.86567 | 34147 ft | 473 kts | 306° |
| 2026-05-07 03:38 | 36.91885 | -121.93382 | 34147 ft | 473 kts | 306° |
| 2026-05-07 03:38 | 36.97708 | -122.04261 | 34143 ft | 472 kts | 305° |
| 2026-05-07 03:39 | 37.11155 | -122.29521 | 34147 ft | 472 kts | 305° |
| 2026-05-07 03:39 | 37.23529 | -122.52935 | 34163 ft | 471 kts | 305° |
| 2026-05-07 03:39 | 37.29657 | -122.67332 | 34162 ft | 475 kts | 281° |
| 2026-05-07 03:40 | 37.28422 | -122.84082 | 34176 ft | 479 kts | 262° |
| 2026-05-07 03:40 | 37.11593 | -124.15600 | 34173 ft | 480 kts | 262° |
| 2026-05-07 03:41 | 36.87794 | -125.44712 | 34251 ft | 479 kts | 250° |
| 2026-05-07 03:41 | 36.52864 | -126.70155 | 34273 ft | 478 kts | 251° |
| 2026-05-07 03:42 | 36.16592 | -127.93888 | 34279 ft | 475 kts | 250° |
| 2026-05-07 03:42 | 35.79266 | -129.15724 | 34294 ft | 474 kts | 250° |
| 2026-05-07 03:43 | 35.40680 | -130.36632 | 34295 ft | 475 kts | 251° |
| 2026-05-07 03:43 | 35.00781 | -131.56690 | 34314 ft | 476 kts | 250° |
| 2026-05-07 03:44 | 34.60072 | -132.74565 | 34312 ft | 474 kts | 249° |
| 2026-05-07 03:44 | 34.18255 | -133.91218 | 34287 ft | 470 kts | 248° |
| 2026-05-07 03:45 | 33.75731 | -135.05723 | 34298 ft | 466 kts | 248° |
| 2026-05-07 03:45 | 33.32416 | -136.18502 | 34285 ft | 463 kts | 247° |
| 2026-05-07 03:46 | 32.88448 | -137.29264 | 34251 ft | 461 kts | 246° |
| 2026-05-07 03:46 | 32.43578 | -138.38769 | 34241 ft | 461 kts | 246° |
| 2026-05-07 03:47 | 31.98002 | -139.46602 | 34234 ft | 460 kts | 245° |
| 2026-05-07 03:47 | 31.51548 | -140.53353 | 34170 ft | 458 kts | 246° |
| 2026-05-07 03:48 | 31.04329 | -141.58739 | 34157 ft | 456 kts | 245° |
| 2026-05-07 03:48 | 30.56612 | -142.62257 | 34143 ft | 452 kts | 245° |
| 2026-05-07 03:49 | 30.11286 | -143.58071 | 34116 ft | 451 kts | 244° |
| 2026-05-07 03:49 | 29.62265 | -144.59124 | 34102 ft | 453 kts | 243° |
| 2026-05-07 03:50 | 29.12039 | -145.60056 | 34108 ft | 456 kts | 242° |
| 2026-05-07 03:50 | 28.60861 | -146.60417 | 34073 ft | 459 kts | 242° |
| 2026-05-07 03:51 | 28.08639 | -147.60385 | 34080 ft | 460 kts | 241° |
| 2026-05-07 03:51 | 27.55943 | -148.58905 | 34053 ft | 462 kts | 241° |
| 2026-05-07 03:52 | 27.01794 | -149.57854 | 34083 ft | 465 kts | 240° |
| 2026-05-07 03:52 | 26.46630 | -150.56434 | 34057 ft | 469 kts | 240° |
| 2026-05-07 03:53 | 25.90426 | -151.54698 | 34073 ft | 472 kts | 239° |
| 2026-05-07 03:53 | 25.33083 | -152.52850 | 34092 ft | 476 kts | 239° |
| 2026-05-07 03:54 | 24.74610 | -153.50880 | 34070 ft | 479 kts | 239° |
| 2026-05-07 03:54 | 24.15044 | -154.48566 | 34081 ft | 484 kts | 238° |
| 2026-05-07 03:55 | 23.56011 | -155.42825 | 34087 ft | 486 kts | 237° |
| 2026-05-07 03:55 | 23.52079 | -155.48818 | 34071 ft | 487 kts | 230° |
| 2026-05-07 03:56 | 23.47126 | -155.53886 | 34072 ft | 485 kts | 223° |
| 2026-05-07 03:56 | 23.42022 | -155.58626 | 34076 ft | 484 kts | 222° |
| 2026-05-07 03:57 | 23.36945 | -155.63449 | 34078 ft | 484 kts | 223° |
| 2026-05-07 03:57 | 23.31925 | -155.68333 | 34076 ft | 484 kts | 224° |
| 2026-05-07 03:58 | 23.26913 | -155.73244 | 34076 ft | 485 kts | 224° |
| 2026-05-07 03:58 | 23.21893 | -155.78156 | 34073 ft | 486 kts | 224° |
| 2026-05-07 03:59 | 23.16860 | -155.83070 | 34074 ft | 486 kts | 223° |
| 2026-05-07 03:59 | 22.98904 | -156.00545 | 34076 ft | 488 kts | 223° |
| 2026-05-07 04:00 | 22.78638 | -156.20190 | 34077 ft | 489 kts | 223° |
| 2026-05-07 04:00 | 22.58318 | -156.39820 | 34076 ft | 489 kts | 223° |
| 2026-05-07 04:01 | 22.37998 | -156.59370 | 34072 ft | 488 kts | 223° |
| 2026-05-07 04:01 | 22.27799 | -156.69151 | 31995 ft | 491 kts | 223° |
| 2026-05-07 04:01 | 22.23914 | -156.72870 | 30996 ft | 486 kts | 223° |
| 2026-05-07 04:01 | 22.21391 | -156.75285 | 30401 ft | 482 kts | 223° |
| 2026-05-07 04:02 | 22.18889 | -156.77679 | 29782 ft | 479 kts | 223° |
| 2026-05-07 04:02 | 22.16438 | -156.80024 | 29170 ft | 475 kts | 223° |
| 2026-05-07 04:02 | 22.13978 | -156.82376 | 28576 ft | 470 kts | 223° |
| 2026-05-07 04:02 | 22.11543 | -156.84701 | 28000 ft | 465 kts | 222° |
| 2026-05-07 04:03 | 22.09131 | -156.87003 | 27446 ft | 461 kts | 222° |
| 2026-05-07 04:03 | 22.06740 | -156.89284 | 26915 ft | 456 kts | 222° |
| 2026-05-07 04:03 | 22.04372 | -156.91543 | 26377 ft | 452 kts | 222° |
| 2026-05-07 04:03 | 22.02024 | -156.93781 | 25839 ft | 448 kts | 222° |
| 2026-05-07 04:04 | 21.99696 | -156.96000 | 25312 ft | 445 kts | 222° |
| 2026-05-07 04:04 | 21.97385 | -156.98202 | 24775 ft | 442 kts | 222° |
| 2026-05-07 04:04 | 21.95113 | -157.00366 | 24256 ft | 439 kts | 222° |
| 2026-05-07 04:04 | 21.92803 | -157.02564 | 23735 ft | 436 kts | 222° |
| 2026-05-07 04:05 | 21.90828 | -157.04444 | 23216 ft | 434 kts | 222° |
| 2026-05-07 04:05 | 21.88576 | -157.06585 | 22681 ft | 430 kts | 222° |
| 2026-05-07 04:05 | 21.86348 | -157.08702 | 22166 ft | 425 kts | 222° |
| 2026-05-07 04:05 | 21.84135 | -157.10804 | 21667 ft | 421 kts | 222° |
| 2026-05-07 04:06 | 21.81945 | -157.12884 | 21179 ft | 417 kts | 222° |
| 2026-05-07 04:06 | 21.79776 | -157.14943 | 20687 ft | 414 kts | 222° |
| 2026-05-07 04:06 | 21.77623 | -157.16986 | 20218 ft | 411 kts | 222° |
| 2026-05-07 04:06 | 21.75488 | -157.19011 | 19741 ft | 408 kts | 222° |
| 2026-05-07 04:07 | 21.73363 | -157.21026 | 19258 ft | 406 kts | 222° |
| 2026-05-07 04:07 | 21.71247 | -157.23033 | 18759 ft | 405 kts | 222° |
| 2026-05-07 04:07 | 21.69139 | -157.25030 | 18277 ft | 403 kts | 222° |
| 2026-05-07 04:07 | 21.67038 | -157.27020 | 17738 ft | 401 kts | 222° |
| 2026-05-07 04:08 | 21.64949 | -157.28997 | 17204 ft | 399 kts | 222° |
| 2026-05-07 04:08 | 21.62867 | -157.30967 | 16704 ft | 397 kts | 222° |
| 2026-05-07 04:08 | 21.60804 | -157.32919 | 16230 ft | 394 kts | 222° |
| 2026-05-07 04:08 | 21.58750 | -157.34861 | 15755 ft | 392 kts | 222° |
| 2026-05-07 04:09 | 21.56714 | -157.36785 | 15290 ft | 389 kts | 222° |
| 2026-05-07 04:09 | 21.54713 | -157.38676 | 14826 ft | 387 kts | 222° |
| 2026-05-07 04:09 | 21.52935 | -157.40356 | 14404 ft | 386 kts | 222° |
| 2026-05-07 04:09 | 21.50940 | -157.42240 | 14024 ft | 373 kts | 222° |
| 2026-05-07 04:10 | 21.49050 | -157.44022 | 13858 ft | 350 kts | 222° |
| 2026-05-07 04:10 | 21.47274 | -157.45698 | 13679 ft | 329 kts | 223° |
| 2026-05-07 04:10 | 21.45847 | -157.47043 | 13546 ft | 313 kts | 223° |
| 2026-05-07 04:10 | 21.44261 | -157.48539 | 13419 ft | 296 kts | 223° |
| 2026-05-07 04:11 | 21.42731 | -157.49981 | 13310 ft | 288 kts | 223° |
| 2026-05-07 04:11 | 21.41444 | -157.51545 | 13082 ft | 278 kts | 243° |
| 2026-05-07 04:11 | 21.40691 | -157.53406 | 12830 ft | 276 kts | 248° |
| 2026-05-07 04:11 | 21.39966 | -157.55348 | 12531 ft | 285 kts | 248° |
| 2026-05-07 04:12 | 21.39213 | -157.57354 | 12213 ft | 293 kts | 248° |
| 2026-05-07 04:12 | 21.38447 | -157.59385 | 11873 ft | 294 kts | 248° |
| 2026-05-07 04:12 | 21.37683 | -157.61407 | 11532 ft | 291 kts | 248° |
| 2026-05-07 04:12 | 21.36923 | -157.63408 | 11200 ft | 288 kts | 248° |
| 2026-05-07 04:13 | 21.36171 | -157.65385 | 10875 ft | 284 kts | 248° |
| 2026-05-07 04:13 | 21.35427 | -157.67338 | 10556 ft | 282 kts | 248° |
| 2026-05-07 04:13 | 21.34691 | -157.69269 | 10265 ft | 278 kts | 248° |
| 2026-05-07 04:13 | 21.33972 | -157.71151 | 10120 ft | 267 kts | 248° |
| 2026-05-07 04:14 | 21.33281 | -157.72959 | 9968 ft | 259 kts | 248° |
| 2026-05-07 04:14 | 21.32592 | -157.74760 | 9641 ft | 264 kts | 248° |
| 2026-05-07 04:14 | 21.31885 | -157.76606 | 9354 ft | 272 kts | 248° |
| 2026-05-07 04:14 | 21.31160 | -157.78495 | 9045 ft | 274 kts | 248° |
| 2026-05-07 04:15 | 21.30436 | -157.80379 | 8731 ft | 271 kts | 248° |
| 2026-05-07 04:15 | 21.29721 | -157.82235 | 8416 ft | 267 kts | 248° |
| 2026-05-07 04:15 | 21.29023 | -157.84051 | 8241 ft | 257 kts | 248° |
| 2026-05-07 04:15 | 21.28355 | -157.85784 | 8071 ft | 247 kts | 247° |
| 2026-05-07 04:16 | 21.27642 | -157.87448 | 7771 ft | 244 kts | 244° |
| 2026-05-07 04:16 | 21.27147 | -157.88536 | 7593 ft | 246 kts | 244° |
| 2026-05-07 04:16 | 21.26142 | -157.90740 | 7225 ft | 250 kts | 244° |
| 2026-05-07 04:16 | 21.25386 | -157.92410 | 6914 ft | 247 kts | 244° |
| 2026-05-07 04:17 | 21.24640 | -157.94064 | 6621 ft | 247 kts | 244° |
| 2026-05-07 04:17 | 21.23934 | -157.95707 | 6435 ft | 235 kts | 252° |
| 2026-05-07 04:17 | 21.23767 | -157.96824 | 6330 ft | 223 kts | 270° |
| 2026-05-07 04:17 | 21.23794 | -157.98448 | 6096 ft | 218 kts | 269° |
| 2026-05-07 04:18 | 21.23800 | -158.00084 | 5983 ft | 222 kts | 269° |
| 2026-05-07 04:18 | 21.23802 | -158.01759 | 5863 ft | 225 kts | 269° |
| 2026-05-07 04:18 | 21.23805 | -158.03424 | 5739 ft | 223 kts | 269° |
| 2026-05-07 04:18 | 21.23806 | -158.05087 | 5621 ft | 223 kts | 269° |
| 2026-05-07 04:19 | 21.23807 | -158.06749 | 5515 ft | 223 kts | 269° |
| 2026-05-07 04:19 | 21.23808 | -158.08411 | 5394 ft | 222 kts | 270° |
| 2026-05-07 04:19 | 21.23808 | -158.10064 | 5293 ft | 221 kts | 270° |
| 2026-05-07 04:19 | 21.23809 | -158.11725 | 5183 ft | 224 kts | 270° |
| 2026-05-07 04:20 | 21.23809 | -158.13390 | 5073 ft | 223 kts | 270° |
| 2026-05-07 04:20 | 21.23808 | -158.15057 | 4969 ft | 223 kts | 270° |
| 2026-05-07 04:20 | 21.23807 | -158.16721 | 4851 ft | 223 kts | 270° |
| 2026-05-07 04:21 | 21.23940 | -158.20047 | 4585 ft | 223 kts | 291° |
| 2026-05-07 04:21 | 21.24818 | -158.21363 | 4505 ft | 224 kts | 325° |
| 2026-05-07 04:21 | 21.26259 | -158.21969 | 4415 ft | 225 kts | 353° |
| 2026-05-07 04:21 | 21.27827 | -158.22048 | 4346 ft | 230 kts | 359° |
| 2026-05-07 04:22 | 21.29436 | -158.22036 | 4185 ft | 229 kts | 2° |
| 2026-05-07 04:22 | 21.30936 | -158.21596 | 4042 ft | 223 kts | 32° |
| 2026-05-07 04:22 | 21.32067 | -158.20474 | 3900 ft | 224 kts | 50° |
| 2026-05-07 04:22 | 21.32770 | -158.18964 | 3692 ft | 232 kts | 81° |
| 2026-05-07 04:23 | 21.32701 | -158.17246 | 3513 ft | 229 kts | 96° |
| 2026-05-07 04:23 | 21.32556 | -158.15549 | 3307 ft | 228 kts | 91° |
| 2026-05-07 04:23 | 21.32521 | -158.13857 | 3102 ft | 227 kts | 89° |
| 2026-05-07 04:23 | 21.32520 | -158.12177 | 2890 ft | 222 kts | 88° |
| 2026-05-07 04:24 | 21.32522 | -158.10552 | 2695 ft | 212 kts | 88° |
| 2026-05-07 04:24 | 21.32522 | -158.08996 | 2518 ft | 211 kts | 89° |
| 2026-05-07 04:24 | 21.32522 | -158.07449 | 2319 ft | 200 kts | 88° |
| 2026-05-07 04:24 | 21.32521 | -158.06016 | 2128 ft | 191 kts | 87° |
| 2026-05-07 04:25 | 21.32522 | -158.04605 | 1893 ft | 185 kts | 86° |
| 2026-05-07 04:25 | 21.32522 | -158.03274 | 1635 ft | 171 kts | 86° |
| 2026-05-07 04:25 | 21.32522 | -158.02066 | 1434 ft | 156 kts | 86° |
| 2026-05-07 04:25 | 21.32522 | -158.00941 | 1260 ft | 152 kts | 87° |
| 2026-05-07 04:26 | 21.32525 | -157.99782 | 1038 ft | 157 kts | 86° |
| 2026-05-07 04:26 | 21.32531 | -157.98629 | 782 ft | 153 kts | 88° |
| 2026-05-07 04:26 | 21.32526 | -157.97509 | 594 ft | 150 kts | 86° |
| 2026-05-07 04:26 | 21.32524 | -157.96384 | 414 ft | 150 kts | 86° |
| 2026-05-07 04:27 | 21.32528 | -157.95257 | 242 ft | 152 kts | 87° |
| 2026-05-07 04:27 | 21.32523 | -157.94140 | 70 ft | 151 kts | 87° |
| 2026-05-07 04:27 | 21.32526 | -157.93096 | 30 ft | 127 kts | 89° |
| 2026-05-07 04:27 | 21.32526 | -157.92348 | 29 ft | 73 kts | 90° |
| 2026-05-07 04:28 | 21.32527 | -157.91989 | 28 ft | 31 kts | 90° |
| 2026-05-07 04:28 | 21.32519 | -157.91780 | 27 ft | 20 kts | 110° |
| 2026-05-07 04:28 | 21.32416 | -157.91681 | 28 ft | 20 kts | 142° |
| 2026-05-07 04:28 | 21.32305 | -157.91592 | 28 ft | 20 kts | 143° |
| 2026-05-07 04:29 | 21.32194 | -157.91504 | 28 ft | 18 kts | 143° |
| 2026-05-07 04:29 | 21.32134 | -157.91465 | 28 ft | 9 kts | 177° |
| 2026-05-07 04:29 | 21.32093 | -157.91512 | 28 ft | 9 kts | 234° |
| 2026-05-07 04:29 | 21.32056 | -157.91566 | 27 ft | 9 kts | 233° |
| 2026-05-07 04:30 | 21.32016 | -157.91618 | 28 ft | 9 kts | 224° |
| 2026-05-07 04:30 | 21.31972 | -157.91653 | 28 ft | 6 kts | 215° |
| 2026-05-07 04:30 | 21.31940 | -157.91677 | 28 ft | 6 kts | 214° |
| 2026-05-07 04:30 | 21.31906 | -157.91697 | 28 ft | 6 kts | 191° |
| 2026-05-07 04:31 | 21.31870 | -157.91681 | 28 ft | 6 kts | 148° |
| 2026-05-07 04:31 | 21.31838 | -157.91656 | 28 ft | 6 kts | 143° |
| 2026-05-07 04:31 | 21.31826 | -157.91645 | 28 ft | 0 kts | 143° |
| 2026-05-07 04:31 | 21.31825 | -157.91645 | 28 ft | 0 kts | 143° |